Broken Bow, Oklahoma
Current Conditions -  °F | °C
As of 2:55 PM on Friday 31 Oct 2014 (Local Time) from K4O4 Reporting Station
Clear Clear  
Wind Chill: 63°   Ceiling: Unl
Heat Index: 63°   Visibility: 10mi
Dew Point: 41°   Wind: 15mph
Humidity: 45%   Direction: 340°NNW
Pressure: 30.27"   Gusts: 21mph
Location:  34.03°N, 94.74°W
Report Text: K4O4 311955Z AUTO 34013G18KT 10SM CLR 17/05 A3027 RMK AO2
Loading
Personal Weather Stations






























Interactive Weather Map
Tropical Storm Tracking
New forecast layout! Learn more

10-Day Weather Forecast

Advertisements
Track Severe Weather on mobile